createdAt,value
2023-04-05T00:01:36.604Z,101069.86
2023-04-05T00:04:12.468Z,101069.44
2023-04-05T00:07:01.330Z,101063.59
2023-04-05T00:09:36.475Z,101064.62
2023-04-05T00:12:19.345Z,101063.74
2023-04-05T00:14:56.483Z,101063.68
2023-04-05T00:17:37.370Z,101058.13
2023-04-05T00:20:24.630Z,101053.73
2023-04-05T00:23:02.662Z,101047.67
2023-04-05T00:25:39.933Z,101045.73
2023-04-05T00:28:17.017Z,101044.30
2023-04-05T00:31:04.687Z,101044.23
2023-04-05T00:33:44.389Z,101045.73
2023-04-05T00:36:25.543Z,101047.58
2023-04-05T00:38:57.227Z,101050.83
2023-04-05T00:41:36.754Z,101053.05
2023-04-05T00:44:19.608Z,101049.27
2023-04-05T00:46:52.930Z,101047.35
2023-04-05T00:49:47.973Z,101047.77
2023-04-05T00:52:41.554Z,101050.23
2023-04-05T00:56:08.734Z,101050.61
2023-04-05T00:58:46.323Z,101050.29
2023-04-05T01:01:22.778Z,101051.02
2023-04-05T01:04:06.728Z,101051.11
2023-04-05T01:07:47.561Z,101051.74
2023-04-05T01:10:43.661Z,101054.26
2023-04-05T01:13:26.830Z,101053.05
2023-04-05T01:16:24.768Z,101054.41
2023-04-05T01:19:04.540Z,101047.36
2023-04-05T01:22:47.678Z,101042.21
2023-04-05T01:25:56.667Z,101037.45
2023-04-05T01:28:59.807Z,101031.00
2023-04-05T01:31:42.328Z,101028.73
2023-04-05T01:34:33.983Z,101026.78
2023-04-05T01:37:19.820Z,101024.72
2023-04-05T01:40:06.150Z,101024.95
2023-04-05T01:42:47.693Z,101019.02
2023-04-05T01:45:26.579Z,101016.87
2023-04-05T01:48:08.839Z,101013.23
2023-04-05T01:50:50.204Z,101012.16
2023-04-05T01:53:32.912Z,101012.55
2023-04-05T01:56:14.181Z,101012.41
2023-04-05T01:58:49.723Z,101012.14
2023-04-05T02:01:29.369Z,101009.01
2023-04-05T02:04:01.913Z,101009.64
2023-04-05T02:06:42.394Z,101010.14
2023-04-05T02:09:24.537Z,101009.31
2023-04-05T02:12:03.696Z,101010.95
2023-04-05T02:14:39.498Z,101011.27
2023-04-05T02:17:29.282Z,101013.10
2023-04-05T02:20:16.748Z,101012.71
2023-04-05T02:22:47.539Z,101012.14
2023-04-05T02:25:27.911Z,101009.17
2023-04-05T02:28:02.038Z,101004.83
2023-04-05T02:30:34.540Z,101007.06
2023-04-05T02:33:15.363Z,101002.86
2023-04-05T02:35:56.676Z,100998.54
2023-04-05T02:38:37.281Z,100999.02
2023-04-05T02:41:17.861Z,100997.98
2023-04-05T02:44:00.642Z,100993.83
2023-04-05T02:46:45.625Z,100989.63
2023-04-05T02:49:24.974Z,100983.55
2023-04-05T02:52:00.341Z,100981.73
2023-04-05T02:54:33.529Z,100981.27
2023-04-05T02:57:17.153Z,100981.16
2023-04-05T02:59:58.657Z,100977.84
2023-04-05T03:02:35.217Z,100971.98
2023-04-05T03:05:13.670Z,100973.62
2023-04-05T03:07:51.100Z,100966.81
2023-04-05T03:10:35.753Z,100970.06
2023-04-05T03:13:13.622Z,100970.05
2023-04-05T03:15:55.580Z,100973.59
2023-04-05T03:18:44.026Z,100975.54
2023-04-05T03:21:18.506Z,100977.48
2023-04-05T03:23:58.309Z,100976.15
2023-04-05T03:26:36.241Z,100975.40
2023-04-05T03:29:07.177Z,100979.69
2023-04-05T03:31:47.983Z,100980.90
2023-04-05T03:34:29.449Z,100978.83
2023-04-05T03:37:04.310Z,100978.27
2023-04-05T03:39:45.648Z,100975.48
2023-04-05T03:42:18.556Z,100976.21
2023-04-05T03:44:58.410Z,100975.30
2023-04-05T03:47:30.988Z,100976.42
2023-04-05T03:50:05.533Z,100979.13
2023-04-05T03:53:12.391Z,100983.73
2023-04-05T03:55:54.626Z,100976.68
2023-04-05T03:58:48.241Z,100974.27
2023-04-05T04:01:25.241Z,100977.48
2023-04-05T04:04:05.480Z,100979.04
2023-04-05T04:06:43.396Z,100981.20
2023-04-05T04:09:22.395Z,100979.91
2023-04-05T04:11:55.031Z,100978.79
2023-04-05T04:14:28.969Z,100975.15
2023-04-05T04:17:38.088Z,100975.11
2023-04-05T04:20:26.257Z,100980.40
2023-04-05T04:23:27.305Z,100983.56
2023-04-05T04:26:29.402Z,100990.61
2023-04-05T04:29:21.315Z,100993.92
2023-04-05T04:32:55.417Z,100989.66
2023-04-05T04:35:47.168Z,100992.45
2023-04-05T04:38:54.890Z,100997.23
2023-04-05T04:41:47.405Z,100999.95
2023-04-05T04:44:47.122Z,101006.77
2023-04-05T04:47:44.009Z,101008.03
2023-04-05T04:50:35.216Z,101006.82
2023-04-05T04:53:18.904Z,101005.91
2023-04-05T04:55:55.933Z,101007.82
2023-04-05T04:58:32.135Z,101008.63
2023-04-05T05:01:13.276Z,101010.95
2023-04-05T05:03:48.587Z,101008.63
2023-04-05T05:06:23.799Z,101010.95
2023-04-05T05:08:56.768Z,101009.70
2023-04-05T05:11:29.498Z,101009.48
2023-04-05T05:14:00.415Z,101012.19
2023-04-05T05:16:36.245Z,101013.19
2023-04-05T05:19:09.341Z,101013.39
2023-04-05T05:21:52.001Z,101017.50
2023-04-05T05:24:22.960Z,101017.83
2023-04-05T05:27:09.709Z,101012.48
2023-04-05T05:29:39.822Z,101008.77
2023-04-05T05:32:17.368Z,101006.19
2023-04-05T05:34:52.894Z,101006.40
2023-04-05T05:37:36.689Z,101001.25
2023-04-05T05:40:10.104Z,100999.80
2023-04-05T05:42:44.243Z,100999.54
2023-04-05T05:45:14.265Z,100996.34
2023-04-05T05:47:54.849Z,100996.16
2023-04-05T05:50:26.055Z,100997.33
2023-04-05T05:53:03.468Z,101000.76
2023-04-05T05:55:39.123Z,101000.30
2023-04-05T05:58:09.602Z,101002.63
2023-04-05T06:00:40.085Z,101004.19
2023-04-05T06:03:15.654Z,101004.33
2023-04-05T06:06:03.789Z,101003.72
2023-04-05T06:08:33.695Z,101002.58
2023-04-05T06:11:07.789Z,101005.16
2023-04-05T06:13:44.465Z,101008.39
2023-04-05T06:16:26.084Z,101011.82
2023-04-05T06:19:04.768Z,101013.26
2023-04-05T06:21:38.096Z,101014.69
2023-04-05T06:24:19.676Z,101013.27
2023-04-05T06:26:55.042Z,101009.95
2023-04-05T06:29:26.636Z,101012.91
2023-04-05T06:32:02.882Z,101016.67
2023-04-05T06:34:46.830Z,101018.73
2023-04-05T06:37:21.600Z,101022.92
2023-04-05T06:39:55.898Z,101027.56
2023-04-05T06:42:28.306Z,101025.42
2023-04-05T06:45:05.658Z,101026.24
2023-04-05T06:47:42.375Z,101026.80
2023-04-05T06:50:20.504Z,101027.88
2023-04-05T06:52:57.522Z,101030.33
2023-04-05T06:55:30.098Z,101026.45
2023-04-05T06:58:08.189Z,101024.91
2023-04-05T07:00:59.368Z,101021.67
2023-04-05T07:03:30.060Z,101026.85
2023-04-05T07:06:13.385Z,101023.17
2023-04-05T07:08:57.006Z,101022.80
2023-04-05T07:11:28.453Z,101023.09
2023-04-05T07:14:01.950Z,101020.74
2023-04-05T07:16:32.312Z,101016.52
2023-04-05T07:19:02.867Z,101011.48
2023-04-05T07:21:35.394Z,101013.66
2023-04-05T07:24:07.133Z,101013.73
2023-04-05T07:26:37.887Z,101016.00
2023-04-05T07:29:20.987Z,101022.56
2023-04-05T07:31:53.825Z,101021.98
2023-04-05T07:34:37.365Z,101019.10
2023-04-05T07:37:10.323Z,101019.82
2023-04-05T07:39:41.482Z,101019.95
2023-04-05T07:42:14.690Z,101022.60
2023-04-05T07:44:45.235Z,101020.59
2023-04-05T07:47:15.839Z,101017.18
2023-04-05T07:50:00.216Z,101019.98
2023-04-05T07:52:33.382Z,101016.43
2023-04-05T07:55:07.772Z,101013.70
2023-04-05T07:57:44.462Z,101012.54
2023-04-05T08:05:59.741Z,101017.30
2023-04-05T08:08:31.391Z,101014.73
2023-04-05T08:11:05.813Z,101017.64
2023-04-05T08:13:42.390Z,101012.14
2023-04-05T08:16:13.445Z,101015.77
2023-04-05T08:18:46.278Z,101019.04
2023-04-05T08:21:22.658Z,101019.02
2023-04-05T08:24:01.402Z,101016.96
2023-04-05T08:26:59.028Z,101020.39
2023-04-05T08:29:42.174Z,101019.37
2023-04-05T08:32:15.511Z,101017.49
2023-04-05T08:34:45.943Z,101019.79
2023-04-05T08:37:24.817Z,101018.63
2023-04-05T08:40:11.522Z,101017.44
2023-04-05T08:43:40.483Z,101011.59
2023-04-05T08:46:48.238Z,101014.33
2023-04-05T08:49:26.019Z,101012.80
2023-04-05T08:52:09.408Z,101010.89
2023-04-05T08:54:40.970Z,101012.27
2023-04-05T08:57:20.255Z,101012.96
2023-04-05T09:03:08.256Z,101016.39
2023-04-05T09:05:53.313Z,101015.54
2023-04-05T09:08:34.506Z,101014.79
2023-04-05T09:11:10.876Z,101012.11
2023-04-05T09:13:41.965Z,101009.40
2023-04-05T09:16:16.866Z,101005.64
2023-04-05T09:18:51.249Z,101012.41
2023-04-05T09:21:23.830Z,101011.31
2023-04-05T09:23:58.972Z,101007.97
2023-04-05T09:26:45.615Z,101000.85
2023-04-05T09:29:32.869Z,100999.40
2023-04-05T09:32:14.457Z,100999.21
2023-04-05T09:35:03.903Z,100992.04
2023-04-05T09:37:36.297Z,100992.23
2023-04-05T09:40:10.922Z,100988.17
2023-04-05T09:42:48.085Z,100985.55
2023-04-05T09:45:21.567Z,100985.60
2023-04-05T09:48:02.204Z,100986.05
2023-04-05T09:50:40.706Z,100986.55
2023-04-05T09:53:22.372Z,100986.38
2023-04-05T09:55:56.292Z,100990.21
2023-04-05T09:58:40.484Z,100985.54
2023-04-05T10:01:17.299Z,100985.39
2023-04-05T10:03:51.034Z,100986.80
2023-04-05T10:06:21.414Z,100985.37
2023-04-05T10:08:55.302Z,100978.86
2023-04-05T10:11:25.964Z,100974.20
2023-04-05T10:13:56.671Z,100973.04
2023-04-05T10:16:32.248Z,100970.95
2023-04-05T10:19:03.697Z,100971.78
2023-04-05T10:21:41.975Z,100972.21
2023-04-05T10:24:39.447Z,100969.14
2023-04-05T10:27:33.316Z,100966.09
2023-04-05T10:30:12.633Z,100965.31
2023-04-05T10:33:07.363Z,100966.64
2023-04-05T10:36:07.330Z,100960.90
2023-04-05T10:39:04.622Z,100960.37
2023-04-05T10:41:49.485Z,100956.85
2023-04-05T10:44:31.990Z,100956.42
2023-04-05T10:47:19.696Z,100951.91
2023-04-05T10:49:59.996Z,100948.84
2023-04-05T10:52:43.034Z,100947.39
2023-04-05T10:55:17.874Z,100950.13
2023-04-05T10:57:58.468Z,100951.70
2023-04-05T11:00:35.448Z,100949.27
2023-04-05T11:03:50.292Z,100947.82
2023-04-05T11:06:35.813Z,100945.22
2023-04-05T11:09:27.251Z,100944.13
2023-04-05T11:12:16.442Z,100942.34
2023-04-05T11:14:55.855Z,100944.44
2023-04-05T11:17:39.324Z,100943.29
2023-04-05T11:20:20.533Z,100945.26
2023-04-05T11:23:09.050Z,100945.33
2023-04-05T11:26:11.207Z,100941.58
2023-04-05T11:28:47.229Z,100937.42
2023-04-05T11:31:28.333Z,100936.98
2023-04-05T11:34:11.648Z,100934.04
2023-04-05T11:36:50.741Z,100934.88
2023-04-05T11:39:33.060Z,100934.84
2023-04-05T11:42:10.099Z,100931.20
2023-04-05T11:45:04.935Z,100926.36
2023-04-05T11:47:46.258Z,100923.45
2023-04-05T11:50:31.703Z,100925.08
2023-04-05T11:53:21.634Z,100924.89
2023-04-05T11:56:19.193Z,100919.73
2023-04-05T11:58:55.976Z,100918.22
2023-04-05T12:01:34.736Z,100919.51
2023-04-05T12:04:18.895Z,100914.88
2023-04-05T12:07:18.321Z,100913.64
2023-04-05T12:10:14.110Z,100910.62
2023-04-05T12:12:48.051Z,100911.32
2023-04-05T12:15:45.906Z,100908.86
2023-04-05T12:18:31.991Z,100908.46
2023-04-05T12:21:12.766Z,100904.36
2023-04-05T12:23:52.529Z,100898.23
2023-04-05T12:26:34.679Z,100896.63
2023-04-05T12:29:14.475Z,100899.23
2023-04-05T12:32:05.253Z,100898.78
2023-04-05T12:34:58.371Z,100897.56
2023-04-05T12:37:36.066Z,100897.86
2023-04-05T12:40:16.212Z,100892.41
2023-04-05T12:43:02.262Z,100892.92
2023-04-05T12:45:44.673Z,100893.21
2023-04-05T12:48:27.212Z,100892.80
2023-04-05T12:51:21.035Z,100894.30
2023-04-05T12:53:57.851Z,100893.18
2023-04-05T12:56:31.023Z,100893.88
2023-04-05T12:59:04.690Z,100892.06
2023-04-05T13:01:39.800Z,100890.08
2023-04-05T13:04:16.696Z,100889.27
2023-04-05T13:06:51.868Z,100888.52
2023-04-05T13:09:33.127Z,100889.05
2023-04-05T13:12:11.543Z,100891.55
2023-04-05T13:15:00.430Z,100889.77
2023-04-05T13:17:34.879Z,100887.66
2023-04-05T13:20:11.839Z,100887.44
2023-04-05T13:22:47.885Z,100886.14
2023-04-05T13:25:22.579Z,100891.13
2023-04-05T13:27:58.671Z,100888.14
2023-04-05T13:30:37.398Z,100883.30
2023-04-05T13:33:09.097Z,100883.91
2023-04-05T13:35:39.592Z,100882.45
2023-04-05T13:38:12.717Z,100878.37
2023-04-05T13:40:46.054Z,100876.39
2023-04-05T13:43:28.276Z,100877.50
2023-04-05T13:45:58.573Z,100875.62
2023-04-05T13:48:35.756Z,100873.04
2023-04-05T13:51:16.279Z,100868.07
2023-04-05T13:54:00.996Z,100864.83
2023-04-05T13:56:52.093Z,100871.08
2023-04-05T14:03:32.719Z,100871.32
2023-04-05T14:09:22.799Z,100868.75
2023-04-05T14:11:57.362Z,100870.52
2023-04-05T14:14:35.771Z,100866.52
2023-04-05T14:17:12.897Z,100870.84
2023-04-05T14:19:49.378Z,100876.55
2023-04-05T14:22:28.762Z,100875.41
2023-04-05T14:25:02.679Z,100872.31
2023-04-05T14:27:46.161Z,100869.74
2023-04-05T14:30:20.402Z,100872.14
2023-04-05T14:33:00.017Z,100877.42
2023-04-05T14:35:55.517Z,100871.63
2023-04-05T14:38:31.370Z,100866.73
2023-04-05T14:41:07.975Z,100873.09
2023-04-05T14:43:43.531Z,100868.88
2023-04-05T14:46:22.088Z,100870.48
2023-04-05T14:48:55.677Z,100868.10
2023-04-05T14:51:28.813Z,100867.89
2023-04-05T14:54:19.031Z,100868.70
2023-04-05T14:57:02.596Z,100870.78
2023-04-05T14:59:51.247Z,100874.66
2023-04-05T15:03:11.350Z,100873.18
2023-04-05T15:06:07.629Z,100870.45
2023-04-05T15:08:55.280Z,100867.73
2023-04-05T15:12:13.422Z,100870.05
2023-04-05T15:14:54.544Z,100874.58
2023-04-05T15:17:59.972Z,100877.06
2023-04-05T15:20:48.105Z,100873.39
2023-04-05T15:23:30.070Z,100871.97
2023-04-05T15:26:22.616Z,100878.23
2023-04-05T15:29:28.026Z,100880.61
2023-04-05T15:32:15.518Z,100881.29
2023-04-05T15:35:16.509Z,100882.92
2023-04-05T15:37:51.921Z,100881.83
2023-04-05T15:40:31.729Z,100886.40
2023-04-05T15:43:11.805Z,100884.41
2023-04-05T15:45:51.397Z,100883.25
2023-04-05T15:48:40.033Z,100884.36
2023-04-05T15:51:13.870Z,100884.69
2023-04-05T15:54:52.562Z,100882.38
2023-04-05T15:57:31.142Z,100887.09
2023-04-05T16:00:17.119Z,100888.03
2023-04-05T16:02:56.149Z,100890.50
2023-04-05T16:05:35.493Z,100892.27
2023-04-05T16:08:11.080Z,100893.48
2023-04-05T16:10:53.630Z,100894.73
2023-04-05T16:13:57.485Z,100891.15
2023-04-05T16:16:41.964Z,100889.79
2023-04-05T16:19:25.485Z,100884.95
2023-04-05T16:22:00.836Z,100886.33
2023-04-05T16:24:37.454Z,100885.95
2023-04-05T16:27:16.835Z,100888.90
2023-04-05T16:29:51.277Z,100884.58
2023-04-05T16:32:23.595Z,100888.91
2023-04-05T16:34:56.256Z,100889.13
2023-04-05T16:37:27.848Z,100890.41
2023-04-05T16:40:00.642Z,100888.76
2023-04-05T16:42:38.254Z,100895.25
2023-04-05T16:45:13.244Z,100900.34
2023-04-05T16:47:44.273Z,100900.41
2023-04-05T16:50:23.703Z,100899.09
2023-04-05T16:53:03.734Z,100900.85
2023-04-05T16:55:38.501Z,100903.33
2023-04-05T16:58:09.259Z,100903.20
2023-04-05T17:00:45.458Z,100904.43
2023-04-05T17:03:22.984Z,100901.88
2023-04-05T17:05:54.808Z,100901.73
2023-04-05T17:08:32.790Z,100908.48
2023-04-05T17:11:10.836Z,100908.73
2023-04-05T17:13:50.861Z,100912.05
2023-04-05T17:16:25.912Z,100912.98
2023-04-05T17:19:02.714Z,100913.25
2023-04-05T17:21:37.459Z,100918.84
2023-04-05T17:24:12.134Z,100920.10
2023-04-05T17:26:49.859Z,100924.29
2023-04-05T17:29:27.165Z,100925.34
2023-04-05T17:31:58.249Z,100931.04
2023-04-05T17:34:34.175Z,100930.54
2023-04-05T17:37:05.164Z,100929.00
2023-04-05T17:39:45.378Z,100929.20
2023-04-05T17:42:20.356Z,100933.36
2023-04-05T17:44:56.169Z,100936.13
2023-04-05T17:47:31.630Z,100941.38
2023-04-05T17:50:07.208Z,100936.91
2023-04-05T17:52:48.868Z,100943.64
2023-04-05T17:55:22.826Z,100945.38
2023-04-05T17:57:55.885Z,100951.61
2023-04-05T18:00:29.593Z,100954.38
2023-04-05T18:03:13.166Z,100953.52
2023-04-05T18:05:46.827Z,100955.98
2023-04-05T18:08:17.670Z,100957.38
2023-04-05T18:10:58.944Z,100958.77
2023-04-05T18:13:40.319Z,100961.56
2023-04-05T18:16:11.019Z,100965.05
2023-04-05T18:18:46.865Z,100967.48
2023-04-05T18:21:34.296Z,100970.11
2023-04-05T18:24:12.520Z,100971.86
2023-04-05T18:26:45.474Z,100972.73
2023-04-05T18:29:17.886Z,100978.44
2023-04-05T18:31:47.987Z,100980.52
2023-04-05T18:34:22.169Z,100986.23
2023-04-05T18:36:59.961Z,100989.00
2023-04-05T18:40:07.158Z,100995.91
2023-04-05T18:42:40.795Z,100995.92
2023-04-05T18:45:11.914Z,100998.50
2023-04-05T18:47:54.020Z,101000.21
2023-04-05T18:50:26.576Z,101002.45
2023-04-05T18:53:09.813Z,101002.46
2023-04-05T18:55:42.390Z,101003.65
2023-04-05T18:58:12.728Z,101007.95
2023-04-05T19:00:42.957Z,101010.86
2023-04-05T19:03:16.867Z,101008.63
2023-04-05T19:05:53.820Z,101009.64
2023-04-05T19:08:47.125Z,101012.22
2023-04-05T19:11:19.399Z,101016.67
2023-04-05T19:13:52.891Z,101019.94
2023-04-05T19:16:28.506Z,101022.67
2023-04-05T19:18:58.091Z,101018.70
2023-04-05T19:21:28.621Z,101024.02
2023-04-05T19:23:58.112Z,101027.08
2023-04-05T19:26:35.918Z,101025.85
2023-04-05T19:29:08.630Z,101028.42
2023-04-05T19:31:51.327Z,101029.10
2023-04-05T19:34:21.957Z,101028.73
2023-04-05T19:37:01.184Z,101026.30
2023-04-05T19:40:20.577Z,101032.48
2023-04-05T19:43:43.429Z,101038.77
2023-04-05T19:46:17.158Z,101043.73
2023-04-05T19:48:54.670Z,101043.22
2023-04-05T19:51:33.172Z,101041.83
2023-04-05T19:54:15.125Z,101042.66
2023-04-05T19:56:48.594Z,101044.17
2023-04-05T19:59:33.493Z,101043.80
2023-04-05T20:02:34.731Z,101042.23
2023-04-05T20:05:26.057Z,101039.77
2023-04-05T20:07:56.648Z,101033.88
2023-04-05T20:10:42.442Z,101031.31
2023-04-05T20:13:12.547Z,101031.31
2023-04-05T20:15:46.870Z,101028.88
2023-04-05T20:18:26.292Z,101029.05
2023-04-05T20:21:03.409Z,101031.95
2023-04-05T20:23:38.471Z,101030.04
2023-04-05T20:26:35.644Z,101027.95
2023-04-05T20:29:11.287Z,101024.32
2023-04-05T20:31:57.735Z,101021.52
2023-04-05T20:34:39.474Z,101018.55
2023-04-05T20:37:13.950Z,101017.16
2023-04-05T20:39:49.829Z,101016.29
2023-04-05T20:42:26.819Z,101014.55
2023-04-05T20:44:57.648Z,101014.71
2023-04-05T20:47:36.885Z,101013.27
2023-04-05T20:50:14.277Z,101014.44
2023-04-05T20:52:50.005Z,101015.24
2023-04-05T20:55:26.973Z,101018.45
2023-04-05T20:57:57.025Z,101015.86
2023-04-05T21:00:29.991Z,101016.90
2023-04-05T21:03:00.207Z,101016.19
2023-04-05T21:05:30.203Z,101015.83
2023-04-05T21:08:00.289Z,101013.08
2023-04-05T21:10:36.973Z,101012.88
2023-04-05T21:13:14.052Z,101014.55
2023-04-05T21:15:50.429Z,101016.41
2023-04-05T21:18:22.531Z,101014.02
2023-04-05T21:20:57.557Z,101013.66
2023-04-05T21:23:32.053Z,101021.70
2023-04-05T21:26:10.804Z,101019.77
2023-04-05T21:28:45.206Z,101019.38
2023-04-05T21:31:23.845Z,101016.44
2023-04-05T21:33:55.379Z,101017.61
2023-04-05T21:36:28.496Z,101017.08
2023-04-05T21:39:04.322Z,101015.34
2023-04-05T21:41:35.246Z,101016.17
2023-04-05T21:44:13.573Z,101018.40
2023-04-05T21:46:57.856Z,101018.76
2023-04-05T21:49:30.795Z,101017.88
2023-04-05T21:52:00.360Z,101019.23
2023-04-05T21:54:29.578Z,101022.65
2023-04-05T21:56:59.292Z,101020.58
2023-04-05T21:59:30.793Z,101020.38
2023-04-05T22:02:09.000Z,101019.69
2023-04-05T22:04:41.341Z,101020.23
2023-04-05T22:07:14.915Z,101025.42
2023-04-05T22:09:49.749Z,101024.25
2023-04-05T22:12:23.233Z,101023.75
2023-04-05T22:14:59.329Z,101024.77
2023-04-05T22:17:36.469Z,101029.54
2023-04-05T22:20:17.879Z,101029.05
2023-04-05T22:22:59.149Z,101031.41
2023-04-05T22:26:28.136Z,101033.13
2023-04-05T22:29:04.222Z,101035.70
2023-04-05T22:31:39.576Z,101037.64
2023-04-05T22:34:27.831Z,101035.25
2023-04-05T22:37:08.236Z,101034.57
2023-04-05T22:39:49.737Z,101039.55
2023-04-05T22:42:25.265Z,101041.46
2023-04-05T22:48:16.153Z,101037.55
2023-04-05T22:50:52.786Z,101038.72
2023-04-05T22:53:28.770Z,101038.70
2023-04-05T22:57:15.855Z,101036.14
2023-04-05T22:59:31.986Z,101034.29
2023-04-05T23:02:05.326Z,101032.65
2023-04-05T23:04:41.311Z,101030.17
2023-04-05T23:07:13.811Z,101025.59
2023-04-05T23:09:50.387Z,101028.17
2023-04-05T23:12:25.892Z,101034.19
2023-04-05T23:14:59.745Z,101031.63
2023-04-05T23:17:36.824Z,101034.02
2023-04-05T23:20:16.335Z,101032.10
2023-04-05T23:22:52.639Z,101031.02
2023-04-05T23:25:35.249Z,101030.11
2023-04-05T23:28:33.903Z,101034.02
2023-04-05T23:31:18.023Z,101036.54
2023-04-05T23:33:50.321Z,101037.53
2023-04-05T23:36:22.552Z,101034.61
2023-04-05T23:39:07.562Z,101037.52
2023-04-05T23:41:39.213Z,101031.51
2023-04-05T23:44:19.580Z,101031.05
2023-04-05T23:46:55.660Z,101028.05
2023-04-05T23:49:28.244Z,101033.36
2023-04-05T23:51:59.352Z,101028.86
2023-04-05T23:54:29.200Z,101028.21
2023-04-05T23:57:25.010Z,101029.92
